sensor_id;sensor_type;location;lat;lon;timestamp;P1;durP1;ratioP1;P2;durP2;ratioP2
4933;SDS011;2482;49.154;8.254;2023-08-24T00:02:01;5.17;;;4.67;;
4933;SDS011;2482;49.154;8.254;2023-08-24T00:04:28;9.10;;;5.10;;
4933;SDS011;2482;49.154;8.254;2023-08-24T00:06:55;14.63;;;5.90;;
4933;SDS011;2482;49.154;8.254;2023-08-24T00:09:22;6.10;;;5.50;;
4933;SDS011;2482;49.154;8.254;2023-08-24T00:11:49;9.10;;;5.33;;
4933;SDS011;2482;49.154;8.254;2023-08-24T00:14:18;7.73;;;5.30;;
4933;SDS011;2482;49.154;8.254;2023-08-24T00:16:45;6.43;;;5.87;;
4933;SDS011;2482;49.154;8.254;2023-08-24T00:19:12;8.73;;;6.00;;
4933;SDS011;2482;49.154;8.254;2023-08-24T00:21:39;10.60;;;6.40;;
4933;SDS011;2482;49.154;8.254;2023-08-24T00:24:06;7.13;;;5.83;;
4933;SDS011;2482;49.154;8.254;2023-08-24T00:26:33;11.63;;;5.30;;
4933;SDS011;2482;49.154;8.254;2023-08-24T00:29:00;6.23;;;5.63;;
4933;SDS011;2482;49.154;8.254;2023-08-24T00:31:27;6.60;;;5.50;;
4933;SDS011;2482;49.154;8.254;2023-08-24T00:33:54;9.93;;;6.70;;
4933;SDS011;2482;49.154;8.254;2023-08-24T00:36:21;6.87;;;6.17;;
4933;SDS011;2482;49.154;8.254;2023-08-24T00:38:49;7.20;;;5.80;;
4933;SDS011;2482;49.154;8.254;2023-08-24T00:41:18;7.70;;;5.80;;
4933;SDS011;2482;49.154;8.254;2023-08-24T00:43:45;10.17;;;6.77;;
4933;SDS011;2482;49.154;8.254;2023-08-24T00:46:12;6.67;;;5.93;;
4933;SDS011;2482;49.154;8.254;2023-08-24T00:48:40;8.13;;;6.07;;
4933;SDS011;2482;49.154;8.254;2023-08-24T00:51:07;9.73;;;5.57;;
4933;SDS011;2482;49.154;8.254;2023-08-24T00:53:34;5.70;;;5.10;;
4933;SDS011;2482;49.154;8.254;2023-08-24T00:56:03;9.80;;;6.27;;
4933;SDS011;2482;49.154;8.254;2023-08-24T00:58:31;7.13;;;5.50;;
4933;SDS011;2482;49.154;8.254;2023-08-24T01:00:59;8.23;;;5.43;;
4933;SDS011;2482;49.154;8.254;2023-08-24T01:03:26;7.40;;;5.50;;
4933;SDS011;2482;49.154;8.254;2023-08-24T01:05:53;8.77;;;5.87;;
4933;SDS011;2482;49.154;8.254;2023-08-24T01:08:20;5.63;;;5.13;;
4933;SDS011;2482;49.154;8.254;2023-08-24T01:13:59;7.23;;;5.40;;
4933;SDS011;2482;49.154;8.254;2023-08-24T01:16:43;10.93;;;6.10;;
4933;SDS011;2482;49.154;8.254;2023-08-24T01:19:25;9.20;;;5.20;;
4933;SDS011;2482;49.154;8.254;2023-08-24T01:25:05;7.40;;;5.30;;
4933;SDS011;2482;49.154;8.254;2023-08-24T01:27:42;7.50;;;5.37;;
4933;SDS011;2482;49.154;8.254;2023-08-24T01:30:10;6.10;;;5.30;;
4933;SDS011;2482;49.154;8.254;2023-08-24T01:32:38;6.60;;;5.23;;
4933;SDS011;2482;49.154;8.254;2023-08-24T01:35:06;8.10;;;4.53;;
4933;SDS011;2482;49.154;8.254;2023-08-24T01:37:36;8.17;;;5.00;;
4933;SDS011;2482;49.154;8.254;2023-08-24T01:40:20;7.20;;;5.20;;
4933;SDS011;2482;49.154;8.254;2023-08-24T01:43:05;8.17;;;5.27;;
4933;SDS011;2482;49.154;8.254;2023-08-24T01:45:36;8.80;;;5.30;;
4933;SDS011;2482;49.154;8.254;2023-08-24T01:48:04;11.57;;;5.13;;
4933;SDS011;2482;49.154;8.254;2023-08-24T01:50:32;10.83;;;5.93;;
4933;SDS011;2482;49.154;8.254;2023-08-24T01:52:59;6.93;;;5.50;;
4933;SDS011;2482;49.154;8.254;2023-08-24T01:55:27;8.47;;;5.17;;
4933;SDS011;2482;49.154;8.254;2023-08-24T01:57:55;7.30;;;4.67;;
4933;SDS011;2482;49.154;8.254;2023-08-24T02:00:23;4.80;;;4.40;;
4933;SDS011;2482;49.154;8.254;2023-08-24T02:02:50;7.10;;;4.80;;
4933;SDS011;2482;49.154;8.254;2023-08-24T02:05:17;7.03;;;5.03;;
4933;SDS011;2482;49.154;8.254;2023-08-24T02:07:44;7.53;;;5.33;;
4933;SDS011;2482;49.154;8.254;2023-08-24T02:10:11;6.83;;;4.93;;
4933;SDS011;2482;49.154;8.254;2023-08-24T02:12:38;7.93;;;4.20;;
4933;SDS011;2482;49.154;8.254;2023-08-24T02:15:05;6.33;;;5.10;;
4933;SDS011;2482;49.154;8.254;2023-08-24T02:17:33;6.30;;;5.37;;
4933;SDS011;2482;49.154;8.254;2023-08-24T02:20:00;7.67;;;5.23;;
4933;SDS011;2482;49.154;8.254;2023-08-24T02:22:28;6.20;;;4.87;;
4933;SDS011;2482;49.154;8.254;2023-08-24T02:24:56;9.13;;;5.13;;
4933;SDS011;2482;49.154;8.254;2023-08-24T02:27:23;6.93;;;5.00;;
4933;SDS011;2482;49.154;8.254;2023-08-24T02:29:50;12.73;;;5.27;;
4933;SDS011;2482;49.154;8.254;2023-08-24T02:32:17;8.53;;;5.17;;
4933;SDS011;2482;49.154;8.254;2023-08-24T02:34:44;8.03;;;4.83;;
4933;SDS011;2482;49.154;8.254;2023-08-24T02:37:12;11.23;;;5.00;;
4933;SDS011;2482;49.154;8.254;2023-08-24T02:39:39;7.30;;;4.70;;
4933;SDS011;2482;49.154;8.254;2023-08-24T02:42:05;9.97;;;5.70;;
4933;SDS011;2482;49.154;8.254;2023-08-24T02:44:32;7.73;;;4.93;;
4933;SDS011;2482;49.154;8.254;2023-08-24T02:46:59;7.00;;;5.17;;
4933;SDS011;2482;49.154;8.254;2023-08-24T02:49:27;9.70;;;5.63;;
4933;SDS011;2482;49.154;8.254;2023-08-24T02:51:53;5.73;;;4.93;;
4933;SDS011;2482;49.154;8.254;2023-08-24T02:54:20;7.43;;;5.30;;
4933;SDS011;2482;49.154;8.254;2023-08-24T02:56:47;6.80;;;5.03;;
4933;SDS011;2482;49.154;8.254;2023-08-24T02:59:14;6.27;;;5.67;;
4933;SDS011;2482;49.154;8.254;2023-08-24T03:01:41;7.57;;;6.03;;
4933;SDS011;2482;49.154;8.254;2023-08-24T03:04:08;6.37;;;5.77;;
4933;SDS011;2482;49.154;8.254;2023-08-24T03:06:35;5.77;;;4.97;;
4933;SDS011;2482;49.154;8.254;2023-08-24T03:09:02;7.03;;;5.57;;
4933;SDS011;2482;49.154;8.254;2023-08-24T03:11:32;5.37;;;4.87;;
4933;SDS011;2482;49.154;8.254;2023-08-24T03:13:59;7.60;;;5.07;;
4933;SDS011;2482;49.154;8.254;2023-08-24T03:16:26;5.90;;;5.40;;
4933;SDS011;2482;49.154;8.254;2023-08-24T03:18:53;7.63;;;5.70;;
4933;SDS011;2482;49.154;8.254;2023-08-24T03:21:20;5.57;;;4.60;;
4933;SDS011;2482;49.154;8.254;2023-08-24T03:23:47;10.50;;;5.40;;
4933;SDS011;2482;49.154;8.254;2023-08-24T03:26:14;9.50;;;6.00;;
4933;SDS011;2482;49.154;8.254;2023-08-24T03:28:43;7.17;;;6.53;;
4933;SDS011;2482;49.154;8.254;2023-08-24T03:31:10;11.13;;;8.07;;
4933;SDS011;2482;49.154;8.254;2023-08-24T03:33:38;11.70;;;7.40;;
4933;SDS011;2482;49.154;8.254;2023-08-24T03:36:05;7.63;;;6.80;;
4933;SDS011;2482;49.154;8.254;2023-08-24T03:38:32;7.80;;;6.90;;
4933;SDS011;2482;49.154;8.254;2023-08-24T03:41:02;8.87;;;6.90;;
4933;SDS011;2482;49.154;8.254;2023-08-24T03:43:33;6.83;;;6.13;;
4933;SDS011;2482;49.154;8.254;2023-08-24T03:46:01;7.00;;;6.30;;
4933;SDS011;2482;49.154;8.254;2023-08-24T03:48:30;10.23;;;5.37;;
4933;SDS011;2482;49.154;8.254;2023-08-24T03:50:59;7.23;;;5.00;;
4933;SDS011;2482;49.154;8.254;2023-08-24T03:53:26;8.90;;;4.60;;
4933;SDS011;2482;49.154;8.254;2023-08-24T03:55:53;5.60;;;5.10;;
4933;SDS011;2482;49.154;8.254;2023-08-24T03:58:20;7.57;;;5.00;;
4933;SDS011;2482;49.154;8.254;2023-08-24T04:00:47;5.43;;;4.63;;
4933;SDS011;2482;49.154;8.254;2023-08-24T04:03:15;6.60;;;4.60;;
4933;SDS011;2482;49.154;8.254;2023-08-24T04:05:42;5.47;;;4.83;;
4933;SDS011;2482;49.154;8.254;2023-08-24T04:08:09;5.27;;;4.77;;
4933;SDS011;2482;49.154;8.254;2023-08-24T04:10:37;5.97;;;4.63;;
4933;SDS011;2482;49.154;8.254;2023-08-24T04:13:04;7.87;;;4.90;;
4933;SDS011;2482;49.154;8.254;2023-08-24T04:15:31;7.37;;;4.13;;
4933;SDS011;2482;49.154;8.254;2023-08-24T04:17:58;4.30;;;3.90;;
4933;SDS011;2482;49.154;8.254;2023-08-24T04:20:25;8.63;;;4.40;;
4933;SDS011;2482;49.154;8.254;2023-08-24T04:22:54;5.13;;;4.47;;
4933;SDS011;2482;49.154;8.254;2023-08-24T04:25:22;7.23;;;4.70;;
4933;SDS011;2482;49.154;8.254;2023-08-24T04:27:49;11.73;;;4.80;;
4933;SDS011;2482;49.154;8.254;2023-08-24T04:30:17;5.50;;;4.60;;
4933;SDS011;2482;49.154;8.254;2023-08-24T04:32:44;4.60;;;4.20;;
4933;SDS011;2482;49.154;8.254;2023-08-24T04:35:11;7.23;;;5.07;;
4933;SDS011;2482;49.154;8.254;2023-08-24T04:37:38;6.03;;;4.47;;
4933;SDS011;2482;49.154;8.254;2023-08-24T04:40:05;8.67;;;4.67;;
4933;SDS011;2482;49.154;8.254;2023-08-24T04:42:37;6.70;;;4.00;;
4933;SDS011;2482;49.154;8.254;2023-08-24T04:45:04;6.07;;;4.90;;
4933;SDS011;2482;49.154;8.254;2023-08-24T04:47:32;7.70;;;4.77;;
4933;SDS011;2482;49.154;8.254;2023-08-24T04:49:59;7.13;;;4.83;;
4933;SDS011;2482;49.154;8.254;2023-08-24T04:52:25;6.17;;;4.63;;
4933;SDS011;2482;49.154;8.254;2023-08-24T04:54:52;7.50;;;4.53;;
4933;SDS011;2482;49.154;8.254;2023-08-24T04:57:19;10.10;;;4.93;;
4933;SDS011;2482;49.154;8.254;2023-08-24T04:59:49;6.77;;;5.30;;
4933;SDS011;2482;49.154;8.254;2023-08-24T05:02:16;9.50;;;4.80;;
4933;SDS011;2482;49.154;8.254;2023-08-24T05:04:43;5.37;;;4.87;;
4933;SDS011;2482;49.154;8.254;2023-08-24T05:07:10;7.97;;;5.20;;
4933;SDS011;2482;49.154;8.254;2023-08-24T05:09:37;9.43;;;4.83;;
4933;SDS011;2482;49.154;8.254;2023-08-24T05:12:04;6.93;;;5.10;;
4933;SDS011;2482;49.154;8.254;2023-08-24T05:14:31;6.80;;;4.83;;
4933;SDS011;2482;49.154;8.254;2023-08-24T05:16:59;6.30;;;4.83;;
4933;SDS011;2482;49.154;8.254;2023-08-24T05:19:26;6.30;;;4.80;;
4933;SDS011;2482;49.154;8.254;2023-08-24T05:21:55;7.03;;;4.30;;
4933;SDS011;2482;49.154;8.254;2023-08-24T05:24:22;5.57;;;4.97;;
4933;SDS011;2482;49.154;8.254;2023-08-24T05:26:49;6.83;;;4.90;;
4933;SDS011;2482;49.154;8.254;2023-08-24T05:29:16;8.50;;;5.23;;
4933;SDS011;2482;49.154;8.254;2023-08-24T05:31:43;11.43;;;5.50;;
4933;SDS011;2482;49.154;8.254;2023-08-24T05:34:10;7.90;;;4.90;;
4933;SDS011;2482;49.154;8.254;2023-08-24T05:36:37;7.20;;;5.10;;
4933;SDS011;2482;49.154;8.254;2023-08-24T05:39:04;11.03;;;6.10;;
4933;SDS011;2482;49.154;8.254;2023-08-24T05:41:32;8.47;;;5.63;;
4933;SDS011;2482;49.154;8.254;2023-08-24T05:44:00;13.00;;;5.30;;
4933;SDS011;2482;49.154;8.254;2023-08-24T05:46:27;7.30;;;5.30;;
4933;SDS011;2482;49.154;8.254;2023-08-24T05:48:55;5.33;;;4.83;;
4933;SDS011;2482;49.154;8.254;2023-08-24T05:51:24;8.60;;;4.73;;
4933;SDS011;2482;49.154;8.254;2023-08-24T05:53:52;9.23;;;4.80;;
4933;SDS011;2482;49.154;8.254;2023-08-24T05:56:21;5.70;;;4.30;;
4933;SDS011;2482;49.154;8.254;2023-08-24T05:58:48;5.10;;;4.60;;
4933;SDS011;2482;49.154;8.254;2023-08-24T06:01:16;9.00;;;4.37;;
4933;SDS011;2482;49.154;8.254;2023-08-24T06:03:43;9.63;;;5.07;;
4933;SDS011;2482;49.154;8.254;2023-08-24T06:06:10;6.40;;;4.90;;
4933;SDS011;2482;49.154;8.254;2023-08-24T06:08:37;8.73;;;5.13;;
4933;SDS011;2482;49.154;8.254;2023-08-24T06:11:04;6.47;;;4.10;;
4933;SDS011;2482;49.154;8.254;2023-08-24T06:13:33;5.23;;;4.30;;
4933;SDS011;2482;49.154;8.254;2023-08-24T06:16:00;4.87;;;3.80;;
4933;SDS011;2482;49.154;8.254;2023-08-24T06:18:28;9.70;;;4.20;;
4933;SDS011;2482;49.154;8.254;2023-08-24T06:20:55;9.73;;;4.20;;
4933;SDS011;2482;49.154;8.254;2023-08-24T06:23:22;6.03;;;4.50;;
4933;SDS011;2482;49.154;8.254;2023-08-24T06:25:49;8.77;;;4.87;;
4933;SDS011;2482;49.154;8.254;2023-08-24T06:28:16;5.93;;;4.43;;
4933;SDS011;2482;49.154;8.254;2023-08-24T06:30:43;9.17;;;4.80;;
4933;SDS011;2482;49.154;8.254;2023-08-24T06:33:11;12.00;;;4.40;;
4933;SDS011;2482;49.154;8.254;2023-08-24T06:35:41;6.80;;;4.90;;
4933;SDS011;2482;49.154;8.254;2023-08-24T06:38:08;11.83;;;4.40;;
4933;SDS011;2482;49.154;8.254;2023-08-24T06:40:35;6.87;;;4.60;;
4933;SDS011;2482;49.154;8.254;2023-08-24T06:43:02;9.77;;;5.20;;
4933;SDS011;2482;49.154;8.254;2023-08-24T06:45:30;9.30;;;4.40;;
4933;SDS011;2482;49.154;8.254;2023-08-24T06:47:58;7.43;;;4.53;;
4933;SDS011;2482;49.154;8.254;2023-08-24T06:50:25;6.53;;;3.90;;
4933;SDS011;2482;49.154;8.254;2023-08-24T06:52:52;5.40;;;4.30;;
4933;SDS011;2482;49.154;8.254;2023-08-24T06:55:19;5.93;;;4.53;;
4933;SDS011;2482;49.154;8.254;2023-08-24T06:57:47;8.87;;;4.90;;
4933;SDS011;2482;49.154;8.254;2023-08-24T07:00:18;8.60;;;4.50;;
4933;SDS011;2482;49.154;8.254;2023-08-24T07:02:50;8.50;;;4.13;;
4933;SDS011;2482;49.154;8.254;2023-08-24T07:05:17;5.13;;;4.53;;
4933;SDS011;2482;49.154;8.254;2023-08-24T07:07:45;10.40;;;4.27;;
4933;SDS011;2482;49.154;8.254;2023-08-24T07:10:14;7.30;;;3.93;;
4933;SDS011;2482;49.154;8.254;2023-08-24T07:12:41;6.40;;;4.20;;
4933;SDS011;2482;49.154;8.254;2023-08-24T07:15:08;8.30;;;3.70;;
4933;SDS011;2482;49.154;8.254;2023-08-24T07:17:35;9.63;;;4.70;;
4933;SDS011;2482;49.154;8.254;2023-08-24T07:20:03;5.10;;;3.87;;
4933;SDS011;2482;49.154;8.254;2023-08-24T07:22:32;7.03;;;4.10;;
4933;SDS011;2482;49.154;8.254;2023-08-24T07:24:59;9.70;;;4.27;;
4933;SDS011;2482;49.154;8.254;2023-08-24T07:27:31;6.60;;;4.20;;
4933;SDS011;2482;49.154;8.254;2023-08-24T07:30:00;7.70;;;4.73;;
4933;SDS011;2482;49.154;8.254;2023-08-24T07:32:51;8.57;;;4.10;;
4933;SDS011;2482;49.154;8.254;2023-08-24T07:35:22;9.40;;;3.90;;
4933;SDS011;2482;49.154;8.254;2023-08-24T07:37:51;7.43;;;4.23;;
4933;SDS011;2482;49.154;8.254;2023-08-24T07:40:18;5.03;;;3.53;;
4933;SDS011;2482;49.154;8.254;2023-08-24T07:42:49;5.53;;;3.80;;
4933;SDS011;2482;49.154;8.254;2023-08-24T07:45:19;5.53;;;4.03;;
4933;SDS011;2482;49.154;8.254;2023-08-24T07:47:47;3.90;;;3.07;;
4933;SDS011;2482;49.154;8.254;2023-08-24T07:50:15;7.37;;;3.87;;
4933;SDS011;2482;49.154;8.254;2023-08-24T07:52:42;10.87;;;4.40;;
4933;SDS011;2482;49.154;8.254;2023-08-24T07:55:09;7.40;;;4.53;;
4933;SDS011;2482;49.154;8.254;2023-08-24T07:57:37;10.60;;;4.10;;
4933;SDS011;2482;49.154;8.254;2023-08-24T08:00:04;9.67;;;4.23;;
4933;SDS011;2482;49.154;8.254;2023-08-24T08:02:35;8.47;;;5.10;;
4933;SDS011;2482;49.154;8.254;2023-08-24T08:05:04;8.23;;;4.47;;
4933;SDS011;2482;49.154;8.254;2023-08-24T08:07:37;9.77;;;4.30;;
4933;SDS011;2482;49.154;8.254;2023-08-24T08:10:04;11.20;;;5.33;;
4933;SDS011;2482;49.154;8.254;2023-08-24T08:12:33;7.50;;;4.10;;
4933;SDS011;2482;49.154;8.254;2023-08-24T08:15:01;8.33;;;4.83;;
4933;SDS011;2482;49.154;8.254;2023-08-24T08:17:28;9.80;;;4.60;;
4933;SDS011;2482;49.154;8.254;2023-08-24T08:19:57;5.03;;;4.10;;
4933;SDS011;2482;49.154;8.254;2023-08-24T08:22:24;8.40;;;5.20;;
4933;SDS011;2482;49.154;8.254;2023-08-24T08:24:51;11.17;;;3.87;;
4933;SDS011;2482;49.154;8.254;2023-08-24T08:27:22;6.50;;;4.30;;
4933;SDS011;2482;49.154;8.254;2023-08-24T08:29:49;6.07;;;3.93;;
4933;SDS011;2482;49.154;8.254;2023-08-24T08:32:17;5.30;;;3.80;;
4933;SDS011;2482;49.154;8.254;2023-08-24T08:34:44;5.97;;;3.40;;
4933;SDS011;2482;49.154;8.254;2023-08-24T08:37:11;8.20;;;4.00;;
4933;SDS011;2482;49.154;8.254;2023-08-24T08:39:38;8.17;;;3.37;;
4933;SDS011;2482;49.154;8.254;2023-08-24T08:42:06;3.67;;;3.20;;
4933;SDS011;2482;49.154;8.254;2023-08-24T08:44:39;5.03;;;3.43;;
4933;SDS011;2482;49.154;8.254;2023-08-24T08:47:10;5.00;;;3.23;;
4933;SDS011;2482;49.154;8.254;2023-08-24T08:49:38;7.23;;;3.50;;
4933;SDS011;2482;49.154;8.254;2023-08-24T08:52:06;6.57;;;3.77;;
4933;SDS011;2482;49.154;8.254;2023-08-24T08:54:33;5.70;;;2.97;;
4933;SDS011;2482;49.154;8.254;2023-08-24T08:57:00;7.03;;;3.40;;
4933;SDS011;2482;49.154;8.254;2023-08-24T08:59:28;9.27;;;3.73;;
4933;SDS011;2482;49.154;8.254;2023-08-24T09:01:57;8.20;;;3.30;;
4933;SDS011;2482;49.154;8.254;2023-08-24T09:04:24;4.90;;;3.10;;
4933;SDS011;2482;49.154;8.254;2023-08-24T09:06:52;10.87;;;3.90;;
4933;SDS011;2482;49.154;8.254;2023-08-24T09:09:19;4.47;;;3.23;;
4933;SDS011;2482;49.154;8.254;2023-08-24T09:11:46;5.90;;;3.37;;
4933;SDS011;2482;49.154;8.254;2023-08-24T09:14:14;5.83;;;3.60;;
4933;SDS011;2482;49.154;8.254;2023-08-24T09:16:41;9.33;;;3.50;;
4933;SDS011;2482;49.154;8.254;2023-08-24T09:19:10;6.10;;;3.43;;
4933;SDS011;2482;49.154;8.254;2023-08-24T09:21:38;4.43;;;3.23;;
4933;SDS011;2482;49.154;8.254;2023-08-24T09:24:08;3.53;;;2.97;;
4933;SDS011;2482;49.154;8.254;2023-08-24T09:26:35;4.73;;;2.80;;
4933;SDS011;2482;49.154;8.254;2023-08-24T09:29:13;6.30;;;3.27;;
4933;SDS011;2482;49.154;8.254;2023-08-24T09:31:42;6.43;;;3.40;;
4933;SDS011;2482;49.154;8.254;2023-08-24T09:34:12;8.47;;;3.10;;
4933;SDS011;2482;49.154;8.254;2023-08-24T09:36:39;4.37;;;2.70;;
4933;SDS011;2482;49.154;8.254;2023-08-24T09:39:07;5.67;;;4.30;;
4933;SDS011;2482;49.154;8.254;2023-08-24T09:41:38;7.30;;;3.20;;
4933;SDS011;2482;49.154;8.254;2023-08-24T09:44:09;4.97;;;2.90;;
4933;SDS011;2482;49.154;8.254;2023-08-24T09:46:38;5.00;;;3.20;;
4933;SDS011;2482;49.154;8.254;2023-08-24T09:49:07;3.03;;;2.43;;
4933;SDS011;2482;49.154;8.254;2023-08-24T09:51:36;3.50;;;2.90;;
4933;SDS011;2482;49.154;8.254;2023-08-24T09:54:07;7.37;;;3.50;;
4933;SDS011;2482;49.154;8.254;2023-08-24T09:56:37;8.77;;;3.23;;
4933;SDS011;2482;49.154;8.254;2023-08-24T09:59:15;4.07;;;2.70;;
4933;SDS011;2482;49.154;8.254;2023-08-24T10:01:45;6.43;;;3.10;;
4933;SDS011;2482;49.154;8.254;2023-08-24T10:04:15;6.83;;;3.30;;
4933;SDS011;2482;49.154;8.254;2023-08-24T10:06:49;6.50;;;2.50;;
4933;SDS011;2482;49.154;8.254;2023-08-24T10:09:23;3.10;;;2.80;;
4933;SDS011;2482;49.154;8.254;2023-08-24T10:12:06;4.80;;;2.93;;
4933;SDS011;2482;49.154;8.254;2023-08-24T10:14:44;5.43;;;2.50;;
4933;SDS011;2482;49.154;8.254;2023-08-24T10:17:20;3.30;;;2.43;;
4933;SDS011;2482;49.154;8.254;2023-08-24T10:19:50;3.80;;;2.60;;
4933;SDS011;2482;49.154;8.254;2023-08-24T10:22:19;6.67;;;3.07;;
4933;SDS011;2482;49.154;8.254;2023-08-24T10:24:47;4.40;;;2.70;;
4933;SDS011;2482;49.154;8.254;2023-08-24T10:27:15;5.70;;;3.27;;
4933;SDS011;2482;49.154;8.254;2023-08-24T10:29:43;3.33;;;2.67;;
4933;SDS011;2482;49.154;8.254;2023-08-24T10:32:10;6.80;;;2.67;;
4933;SDS011;2482;49.154;8.254;2023-08-24T10:34:37;9.23;;;2.60;;
4933;SDS011;2482;49.154;8.254;2023-08-24T10:37:08;3.80;;;2.70;;
4933;SDS011;2482;49.154;8.254;2023-08-24T10:39:37;11.10;;;3.07;;
4933;SDS011;2482;49.154;8.254;2023-08-24T10:42:12;5.83;;;2.60;;
4933;SDS011;2482;49.154;8.254;2023-08-24T10:44:43;9.60;;;2.40;;
4933;SDS011;2482;49.154;8.254;2023-08-24T10:47:19;5.70;;;2.80;;
4933;SDS011;2482;49.154;8.254;2023-08-24T10:52:35;4.60;;;2.30;;
4933;SDS011;2482;49.154;8.254;2023-08-24T10:55:21;6.00;;;2.97;;
4933;SDS011;2482;49.154;8.254;2023-08-24T11:00:27;4.40;;;2.47;;
4933;SDS011;2482;49.154;8.254;2023-08-24T11:02:56;3.40;;;2.83;;
4933;SDS011;2482;49.154;8.254;2023-08-24T11:05:30;6.93;;;2.67;;
4933;SDS011;2482;49.154;8.254;2023-08-24T11:08:00;7.63;;;2.37;;
4933;SDS011;2482;49.154;8.254;2023-08-24T11:10:35;6.20;;;2.50;;
4933;SDS011;2482;49.154;8.254;2023-08-24T11:13:16;5.00;;;2.50;;
4933;SDS011;2482;49.154;8.254;2023-08-24T11:15:49;4.07;;;2.30;;
4933;SDS011;2482;49.154;8.254;2023-08-24T11:18:26;3.83;;;2.37;;
4933;SDS011;2482;49.154;8.254;2023-08-24T11:20:56;8.57;;;2.67;;
4933;SDS011;2482;49.154;8.254;2023-08-24T11:23:31;6.37;;;2.53;;
4933;SDS011;2482;49.154;8.254;2023-08-24T11:25:59;5.63;;;2.60;;
4933;SDS011;2482;49.154;8.254;2023-08-24T11:28:27;5.33;;;2.13;;
4933;SDS011;2482;49.154;8.254;2023-08-24T11:30:57;2.40;;;2.17;;
4933;SDS011;2482;49.154;8.254;2023-08-24T11:33:35;3.50;;;2.30;;
4933;SDS011;2482;49.154;8.254;2023-08-24T11:36:03;3.60;;;2.47;;
4933;SDS011;2482;49.154;8.254;2023-08-24T11:38:40;3.57;;;2.87;;
4933;SDS011;2482;49.154;8.254;2023-08-24T11:41:15;3.60;;;2.33;;
4933;SDS011;2482;49.154;8.254;2023-08-24T11:43:44;4.67;;;2.70;;
4933;SDS011;2482;49.154;8.254;2023-08-24T11:46:17;4.80;;;2.53;;
4933;SDS011;2482;49.154;8.254;2023-08-24T11:48:45;6.10;;;2.57;;
4933;SDS011;2482;49.154;8.254;2023-08-24T11:51:12;4.00;;;2.60;;
4933;SDS011;2482;49.154;8.254;2023-08-24T11:53:45;2.20;;;2.00;;
4933;SDS011;2482;49.154;8.254;2023-08-24T11:56:14;7.30;;;2.60;;
4933;SDS011;2482;49.154;8.254;2023-08-24T11:58:47;7.90;;;2.80;;
4933;SDS011;2482;49.154;8.254;2023-08-24T12:01:16;4.20;;;2.67;;
4933;SDS011;2482;49.154;8.254;2023-08-24T12:03:44;5.10;;;3.03;;
4933;SDS011;2482;49.154;8.254;2023-08-24T12:06:15;4.27;;;2.40;;
4933;SDS011;2482;49.154;8.254;2023-08-24T12:08:47;3.97;;;2.30;;
4933;SDS011;2482;49.154;8.254;2023-08-24T12:11:19;3.13;;;2.30;;
4933;SDS011;2482;49.154;8.254;2023-08-24T12:13:52;6.87;;;3.10;;
4933;SDS011;2482;49.154;8.254;2023-08-24T12:16:21;3.53;;;2.30;;
4933;SDS011;2482;49.154;8.254;2023-08-24T12:18:52;4.53;;;2.87;;
4933;SDS011;2482;49.154;8.254;2023-08-24T12:21:26;9.83;;;2.90;;
4933;SDS011;2482;49.154;8.254;2023-08-24T12:23:59;3.73;;;3.03;;
4933;SDS011;2482;49.154;8.254;2023-08-24T12:26:35;6.57;;;3.40;;
4933;SDS011;2482;49.154;8.254;2023-08-24T12:29:04;6.03;;;2.67;;
4933;SDS011;2482;49.154;8.254;2023-08-24T12:31:35;5.43;;;2.70;;
4933;SDS011;2482;49.154;8.254;2023-08-24T12:34:03;17.07;;;3.00;;
4933;SDS011;2482;49.154;8.254;2023-08-24T12:36:32;11.43;;;3.00;;
4933;SDS011;2482;49.154;8.254;2023-08-24T12:39:03;5.03;;;2.43;;
4933;SDS011;2482;49.154;8.254;2023-08-24T12:41:32;4.10;;;2.70;;
4933;SDS011;2482;49.154;8.254;2023-08-24T12:43:59;11.27;;;2.80;;
4933;SDS011;2482;49.154;8.254;2023-08-24T12:46:32;10.10;;;2.77;;
4933;SDS011;2482;49.154;8.254;2023-08-24T12:49:02;3.53;;;2.70;;
4933;SDS011;2482;49.154;8.254;2023-08-24T12:51:29;6.10;;;3.10;;
4933;SDS011;2482;49.154;8.254;2023-08-24T12:53:56;5.57;;;3.10;;
4933;SDS011;2482;49.154;8.254;2023-08-24T12:56:23;5.13;;;2.80;;
4933;SDS011;2482;49.154;8.254;2023-08-24T12:58:50;7.57;;;3.00;;
4933;SDS011;2482;49.154;8.254;2023-08-24T13:01:18;4.27;;;2.80;;
4933;SDS011;2482;49.154;8.254;2023-08-24T13:03:45;5.30;;;2.60;;
4933;SDS011;2482;49.154;8.254;2023-08-24T13:06:11;7.97;;;3.33;;
4933;SDS011;2482;49.154;8.254;2023-08-24T13:08:46;9.13;;;2.90;;
4933;SDS011;2482;49.154;8.254;2023-08-24T13:11:13;3.47;;;2.77;;
4933;SDS011;2482;49.154;8.254;2023-08-24T13:13:40;4.57;;;2.60;;
4933;SDS011;2482;49.154;8.254;2023-08-24T13:16:07;5.40;;;2.60;;
4933;SDS011;2482;49.154;8.254;2023-08-24T13:18:34;4.53;;;3.23;;
4933;SDS011;2482;49.154;8.254;2023-08-24T13:21:01;3.20;;;2.90;;
4933;SDS011;2482;49.154;8.254;2023-08-24T13:23:28;12.50;;;3.47;;
4933;SDS011;2482;49.154;8.254;2023-08-24T13:25:58;8.63;;;2.87;;
4933;SDS011;2482;49.154;8.254;2023-08-24T13:28:26;4.27;;;3.20;;
4933;SDS011;2482;49.154;8.254;2023-08-24T13:30:54;7.53;;;3.33;;
4933;SDS011;2482;49.154;8.254;2023-08-24T13:33:21;4.63;;;3.57;;
4933;SDS011;2482;49.154;8.254;2023-08-24T13:35:48;5.20;;;3.90;;
4933;SDS011;2482;49.154;8.254;2023-08-24T13:38:15;5.57;;;3.43;;
4933;SDS011;2482;49.154;8.254;2023-08-24T13:40:42;5.53;;;3.30;;
4933;SDS011;2482;49.154;8.254;2023-08-24T13:43:11;3.53;;;2.70;;
4933;SDS011;2482;49.154;8.254;2023-08-24T13:45:38;6.27;;;3.43;;
4933;SDS011;2482;49.154;8.254;2023-08-24T13:48:05;4.73;;;3.33;;
4933;SDS011;2482;49.154;8.254;2023-08-24T13:50:33;6.93;;;3.27;;
4933;SDS011;2482;49.154;8.254;2023-08-24T13:53:00;4.27;;;2.80;;
4933;SDS011;2482;49.154;8.254;2023-08-24T13:55:27;5.00;;;2.90;;
4933;SDS011;2482;49.154;8.254;2023-08-24T13:57:55;5.00;;;3.37;;
4933;SDS011;2482;49.154;8.254;2023-08-24T14:00:22;4.70;;;2.93;;
4933;SDS011;2482;49.154;8.254;2023-08-24T14:02:49;7.20;;;3.57;;
4933;SDS011;2482;49.154;8.254;2023-08-24T14:05:17;3.90;;;3.47;;
4933;SDS011;2482;49.154;8.254;2023-08-24T14:07:44;8.57;;;3.80;;
4933;SDS011;2482;49.154;8.254;2023-08-24T14:10:11;27.23;;;4.30;;
4933;SDS011;2482;49.154;8.254;2023-08-24T14:12:38;17.83;;;4.70;;
4933;SDS011;2482;49.154;8.254;2023-08-24T14:15:05;20.90;;;4.70;;
4933;SDS011;2482;49.154;8.254;2023-08-24T14:17:33;19.53;;;3.70;;
4933;SDS011;2482;49.154;8.254;2023-08-24T14:20:00;16.10;;;4.00;;
4933;SDS011;2482;49.154;8.254;2023-08-24T14:22:27;6.33;;;3.80;;
4933;SDS011;2482;49.154;8.254;2023-08-24T14:24:54;5.80;;;3.40;;
4933;SDS011;2482;49.154;8.254;2023-08-24T14:27:21;11.47;;;4.90;;
4933;SDS011;2482;49.154;8.254;2023-08-24T14:29:48;8.33;;;4.40;;
4933;SDS011;2482;49.154;8.254;2023-08-24T14:32:15;13.80;;;5.67;;
4933;SDS011;2482;49.154;8.254;2023-08-24T14:34:42;6.00;;;5.37;;
4933;SDS011;2482;49.154;8.254;2023-08-24T14:37:09;6.50;;;5.43;;
4933;SDS011;2482;49.154;8.254;2023-08-24T14:39:36;9.67;;;6.13;;
4933;SDS011;2482;49.154;8.254;2023-08-24T14:42:03;9.00;;;5.50;;
4933;SDS011;2482;49.154;8.254;2023-08-24T14:44:31;7.77;;;5.70;;
4933;SDS011;2482;49.154;8.254;2023-08-24T14:46:58;9.20;;;6.17;;
4933;SDS011;2482;49.154;8.254;2023-08-24T14:49:25;8.93;;;6.07;;
4933;SDS011;2482;49.154;8.254;2023-08-24T14:51:52;7.67;;;5.87;;
4933;SDS011;2482;49.154;8.254;2023-08-24T14:54:19;9.33;;;5.80;;
4933;SDS011;2482;49.154;8.254;2023-08-24T14:56:46;10.90;;;5.63;;
4933;SDS011;2482;49.154;8.254;2023-08-24T14:59:13;8.37;;;6.10;;
4933;SDS011;2482;49.154;8.254;2023-08-24T15:01:40;8.70;;;5.80;;
4933;SDS011;2482;49.154;8.254;2023-08-24T15:04:07;8.73;;;5.40;;
4933;SDS011;2482;49.154;8.254;2023-08-24T15:06:38;13.37;;;5.10;;
4933;SDS011;2482;49.154;8.254;2023-08-24T15:09:05;10.20;;;5.70;;
4933;SDS011;2482;49.154;8.254;2023-08-24T15:11:32;14.03;;;5.43;;
4933;SDS011;2482;49.154;8.254;2023-08-24T15:13:59;9.23;;;5.40;;
4933;SDS011;2482;49.154;8.254;2023-08-24T15:16:27;7.00;;;4.20;;
4933;SDS011;2482;49.154;8.254;2023-08-24T15:18:54;9.67;;;5.37;;
4933;SDS011;2482;49.154;8.254;2023-08-24T15:21:20;9.60;;;4.57;;
4933;SDS011;2482;49.154;8.254;2023-08-24T15:23:48;10.43;;;4.63;;
4933;SDS011;2482;49.154;8.254;2023-08-24T15:26:15;7.47;;;4.20;;
4933;SDS011;2482;49.154;8.254;2023-08-24T15:31:42;9.10;;;4.20;;
4933;SDS011;2482;49.154;8.254;2023-08-24T15:34:09;10.30;;;4.50;;
4933;SDS011;2482;49.154;8.254;2023-08-24T15:36:37;9.83;;;4.50;;
4933;SDS011;2482;49.154;8.254;2023-08-24T15:39:05;9.23;;;4.33;;